Terminal Aerodrome Forecast
Issued by NWS

Home | Current Version | Previous Version | Text Only | Print | Product List | Glossary On
Versions: 1 2 3 4 5 6 7 8 9 10 11 12 13 14 15 16 17 18
000
FTUS41 KBOX 261120
TAFBED
TAF
KBED 261120Z 2612/2712 25006KT P6SM SKC
     FM261500 28010KT P6SM SCT070
     FM262100 23004KT P6SM VCSH BKN070
     FM270400 23004KT P6SM SCT140=

USA.gov is the U.S. government's official web portal to all federal, state and local government web resources and services.